createdAt,value
2024-03-16T00:01:59.955Z,9.90
2024-03-16T00:04:26.492Z,9.33
2024-03-16T00:06:53.611Z,9.19
2024-03-16T00:09:21.197Z,9.67
2024-03-16T00:11:48.172Z,9.01
2024-03-16T00:14:14.829Z,9.37
2024-03-16T00:16:41.415Z,9.76
2024-03-16T00:19:08.043Z,8.74
2024-03-16T00:21:34.749Z,9.30
2024-03-16T00:24:01.269Z,9.71
2024-03-16T00:26:27.795Z,9.08
2024-03-16T00:28:54.265Z,8.48
2024-03-16T00:31:20.902Z,8.93
2024-03-16T00:33:47.918Z,9.59
2024-03-16T00:36:14.487Z,9.71
2024-03-16T00:38:41.135Z,9.15
2024-03-16T00:41:08.212Z,8.95
2024-03-16T00:43:34.686Z,9.58
2024-03-16T00:46:01.315Z,9.71
2024-03-16T00:48:28.051Z,9.27
2024-03-16T00:50:54.566Z,9.42
2024-03-16T00:53:21.066Z,9.54
2024-03-16T00:55:47.542Z,9.65
2024-03-16T00:58:14.054Z,9.52
2024-03-16T01:00:41.293Z,9.32
2024-03-16T01:03:07.824Z,9.63
2024-03-16T01:05:34.313Z,9.52
2024-03-16T01:08:00.788Z,9.20
2024-03-16T01:10:27.315Z,9.39
2024-03-16T01:12:53.919Z,9.28
2024-03-16T01:15:22.318Z,9.57
2024-03-16T01:17:49.016Z,9.13
2024-03-16T01:20:16.744Z,9.41
2024-03-16T01:22:43.341Z,8.68
2024-03-16T01:25:09.925Z,9.32
2024-03-16T01:27:36.509Z,8.93
2024-03-16T01:30:04.409Z,9.00
2024-03-16T01:32:30.992Z,9.07
2024-03-16T01:34:57.696Z,9.00
2024-03-16T01:37:24.200Z,9.10
2024-03-16T01:39:51.195Z,9.08
2024-03-16T01:42:17.947Z,8.79
2024-03-16T01:45:05.741Z,9.36
2024-03-16T01:47:32.870Z,8.69
2024-03-16T01:50:00.339Z,9.44
2024-03-16T01:52:29.815Z,9.43
2024-03-16T01:54:56.570Z,9.29
2024-03-16T01:57:23.119Z,9.07
2024-03-16T01:59:52.221Z,8.50
2024-03-16T02:02:37.961Z,9.14
2024-03-16T02:05:05.365Z,9.42
2024-03-16T02:07:35.928Z,9.48
2024-03-16T02:10:05.919Z,9.50
2024-03-16T02:12:33.109Z,9.51
2024-03-16T02:14:59.793Z,9.48
2024-03-16T02:17:26.494Z,9.51
2024-03-16T02:19:53.268Z,9.53
2024-03-16T02:22:20.263Z,9.31
2024-03-16T02:24:47.779Z,9.26
2024-03-16T02:27:14.580Z,9.47
2024-03-16T02:29:41.107Z,9.50
2024-03-16T02:32:10.821Z,9.50
2024-03-16T02:34:37.856Z,8.70
2024-03-16T02:37:05.553Z,8.35
2024-03-16T02:39:33.107Z,9.24
2024-03-16T02:42:00.396Z,9.24
2024-03-16T02:44:27.528Z,9.32
2024-03-16T02:46:54.656Z,9.44
2024-03-16T02:49:22.343Z,9.49
2024-03-16T02:51:51.861Z,9.48
2024-03-16T02:54:18.626Z,9.50
2024-03-16T02:56:45.440Z,9.51
2024-03-16T02:59:13.206Z,9.50
2024-03-16T03:01:40.176Z,9.53
2024-03-16T03:04:08.260Z,9.52
2024-03-16T03:06:35.146Z,9.21
2024-03-16T03:09:02.477Z,9.41
2024-03-16T03:11:29.094Z,9.49
2024-03-16T03:13:56.156Z,9.50
2024-03-16T03:16:25.093Z,9.49
2024-03-16T03:18:52.309Z,8.92
2024-03-16T03:21:19.036Z,9.37
2024-03-16T03:23:46.012Z,8.91
2024-03-16T03:26:12.542Z,8.33
2024-03-16T03:28:39.163Z,9.06
2024-03-16T03:31:07.657Z,9.38
2024-03-16T03:33:34.298Z,9.41
2024-03-16T03:36:03.806Z,9.44
2024-03-16T03:38:31.143Z,9.08
2024-03-16T03:40:58.581Z,9.23
2024-03-16T03:43:25.892Z,8.69
2024-03-16T03:45:55.564Z,9.22
2024-03-16T03:48:25.414Z,7.87
2024-03-16T03:50:53.687Z,9.00
2024-03-16T03:53:22.102Z,8.50
2024-03-16T03:55:49.512Z,8.77
2024-03-16T03:58:16.070Z,9.28
2024-03-16T04:00:46.493Z,9.13
2024-03-16T04:03:13.601Z,9.32
2024-03-16T04:05:40.795Z,9.37
2024-03-16T04:08:07.561Z,9.39
2024-03-16T04:10:35.499Z,9.12
2024-03-16T04:13:02.496Z,9.33
2024-03-16T04:15:29.188Z,9.36
2024-03-16T04:17:55.774Z,9.38
2024-03-16T04:20:23.063Z,9.36
2024-03-16T04:22:50.066Z,9.35
2024-03-16T04:25:17.654Z,9.35
2024-03-16T04:27:45.392Z,9.37
2024-03-16T04:30:12.718Z,9.39
2024-03-16T04:32:39.356Z,9.38
2024-03-16T04:35:06.551Z,9.34
2024-03-16T04:37:34.882Z,8.60
2024-03-16T04:40:01.468Z,9.16
2024-03-16T04:42:28.115Z,9.28
2024-03-16T04:44:54.618Z,9.28
2024-03-16T04:47:21.094Z,9.29
2024-03-16T04:49:47.575Z,9.29
2024-03-16T04:52:15.174Z,8.92
2024-03-16T04:54:41.995Z,8.71
2024-03-16T04:57:08.629Z,9.15
2024-03-16T04:59:35.138Z,7.56
2024-03-16T05:02:01.681Z,8.46
2024-03-16T05:04:28.200Z,8.62
2024-03-16T05:06:54.921Z,8.06
2024-03-16T05:09:21.500Z,9.02
2024-03-16T05:11:48.041Z,9.13
2024-03-16T05:14:14.520Z,9.16
2024-03-16T05:16:41.024Z,9.14
2024-03-16T05:19:08.181Z,9.18
2024-03-16T05:21:36.217Z,8.80
2024-03-16T05:24:03.058Z,6.69
2024-03-16T05:26:32.107Z,8.24
2024-03-16T05:28:59.318Z,7.97
2024-03-16T05:31:27.055Z,8.85
2024-03-16T05:33:53.604Z,9.03
2024-03-16T05:36:20.250Z,9.10
2024-03-16T05:38:49.427Z,9.05
2024-03-16T05:41:16.808Z,8.34
2024-03-16T05:43:45.284Z,8.84
2024-03-16T05:46:12.554Z,9.05
2024-03-16T05:48:39.342Z,9.07
2024-03-16T05:51:08.633Z,9.06
2024-03-16T05:53:35.241Z,9.08
2024-03-16T05:56:01.831Z,9.08
2024-03-16T05:58:29.728Z,9.09
2024-03-16T06:00:57.709Z,9.08
2024-03-16T06:03:27.099Z,9.05
2024-03-16T06:05:53.829Z,9.10
2024-03-16T06:08:20.586Z,7.77
2024-03-16T06:10:48.812Z,8.87
2024-03-16T06:13:15.621Z,8.99
2024-03-16T06:15:42.123Z,8.33
2024-03-16T06:18:08.736Z,8.81
2024-03-16T06:20:35.345Z,8.99
2024-03-16T06:23:01.866Z,9.02
2024-03-16T06:25:30.731Z,8.93
2024-03-16T06:28:07.049Z,8.90
2024-03-16T06:30:34.347Z,9.03
2024-03-16T06:33:07.335Z,9.01
2024-03-16T06:35:34.608Z,8.99
2024-03-16T06:38:01.239Z,9.01
2024-03-16T06:40:27.822Z,8.74
2024-03-16T06:42:54.428Z,8.80
2024-03-16T06:45:21.073Z,8.96
2024-03-16T06:47:47.809Z,9.02
2024-03-16T06:50:14.451Z,9.00
2024-03-16T06:52:41.148Z,8.77
2024-03-16T06:55:10.801Z,8.94
2024-03-16T06:57:37.283Z,8.99
2024-03-16T07:00:04.712Z,8.88
2024-03-16T07:02:31.690Z,8.92
2024-03-16T07:04:58.234Z,8.08
2024-03-16T07:07:24.724Z,8.71
2024-03-16T07:09:51.327Z,8.89
2024-03-16T07:12:18.236Z,8.92
2024-03-16T07:14:44.735Z,8.88
2024-03-16T07:17:11.275Z,8.94
2024-03-16T07:19:37.789Z,8.95
2024-03-16T07:22:04.414Z,8.95
2024-03-16T07:24:31.032Z,8.24
2024-03-16T07:26:57.679Z,8.08
2024-03-16T07:29:25.165Z,8.10
2024-03-16T07:31:51.985Z,8.14
2024-03-16T07:34:18.724Z,8.48
2024-03-16T07:36:45.589Z,8.77
2024-03-16T07:39:12.468Z,9.01
2024-03-16T07:41:39.064Z,8.87
2024-03-16T07:44:05.549Z,8.88
2024-03-16T07:46:32.031Z,8.75
2024-03-16T07:49:00.409Z,8.89
2024-03-16T07:51:30.777Z,8.89
2024-03-16T07:53:57.515Z,8.97
2024-03-16T07:56:24.004Z,9.21
2024-03-16T07:58:50.849Z,8.97
2024-03-16T08:01:17.850Z,9.32
2024-03-16T08:03:45.239Z,9.28
2024-03-16T08:06:12.173Z,10.09
2024-03-16T08:08:40.049Z,10.41
2024-03-16T08:11:08.387Z,10.54
2024-03-16T08:13:35.727Z,9.66
2024-03-16T08:16:02.441Z,9.83
2024-03-16T08:18:29.440Z,9.77
2024-03-16T08:20:59.733Z,9.72
2024-03-16T08:23:26.313Z,9.45
2024-03-16T08:25:52.924Z,9.63
2024-03-16T08:28:19.530Z,10.24
2024-03-16T08:30:46.138Z,9.34
2024-03-16T08:33:12.890Z,10.98
2024-03-16T08:35:40.128Z,10.65
2024-03-16T08:38:06.620Z,9.50
2024-03-16T08:40:34.175Z,10.62
2024-03-16T08:43:00.837Z,12.46
2024-03-16T08:45:27.426Z,10.23
2024-03-16T08:47:53.931Z,10.09
2024-03-16T08:50:20.623Z,9.57
2024-03-16T08:52:48.270Z,11.05
2024-03-16T08:55:15.073Z,10.59
2024-03-16T08:57:42.696Z,11.38
2024-03-16T09:00:13.612Z,11.15
2024-03-16T09:02:40.172Z,11.07
2024-03-16T09:05:09.675Z,10.59
2024-03-16T09:07:39.075Z,10.52
2024-03-16T09:10:12.184Z,11.39
2024-03-16T09:12:39.216Z,12.47
2024-03-16T09:15:12.494Z,10.74
2024-03-16T09:17:39.784Z,12.15
2024-03-16T09:20:11.152Z,10.28
2024-03-16T09:22:38.652Z,10.44
2024-03-16T09:25:09.894Z,10.47
2024-03-16T09:27:37.735Z,11.31
2024-03-16T09:30:12.667Z,11.72
2024-03-16T09:32:40.850Z,11.21
2024-03-16T09:35:08.556Z,13.21
2024-03-16T09:37:35.140Z,11.08
2024-03-16T09:40:02.086Z,11.46
2024-03-16T09:42:29.823Z,12.12
